Time;durP1;ratioP1;P1;durP2;ratioP2;P2;SDS_P1;SDS_P2;PMS_P1;PMS_P2;Temp;Humidity;BMP_temperature;BMP_pressure;BME280_temperature;BME280_humidity;BME280_pressure;Samples;Min_cycle;Max_cycle;Signal;HPM_P1;HPM_P2
2022/05/16 00:02:02;;;;;;;3.45;1.30;;;;;;;19.19;42.30;98997.38;5091543;28;20395;-62
2022/05/16 00:04:49;;;;;;;2.88;1.60;;;;;;;19.44;42.20;98997.50;5092614;28;20044;-62
2022/05/16 00:07:35;;;;;;;3.17;1.58;;;;;;;19.53;41.80;99006.34;5076364;28;20040;-62
2022/05/16 00:10:23;;;;;;;3.42;1.42;;;;;;;19.44;44.11;99002.81;5090755;28;20034;-61
2022/05/16 00:13:08;;;;;;;5.90;1.70;;;;;;;19.16;44.34;99002.97;5091099;28;20036;-61
2022/05/16 00:15:53;;;;;;;2.50;1.50;;;;;;;19.05;44.34;98994.25;5092652;28;20036;-63
2022/05/16 00:18:37;;;;;;;3.20;1.50;;;;;;;19.26;43.04;98994.91;5091661;28;20047;-62
2022/05/16 00:21:22;;;;;;;4.22;1.48;;;;;;;19.30;42.76;98999.75;5084792;28;20036;-63
2022/05/16 00:24:07;;;;;;;4.18;1.20;;;;;;;19.28;44.74;98988.44;5091313;28;20036;-63
2022/05/16 00:26:53;;;;;;;3.88;1.48;;;;;;;19.07;41.77;98992.28;5063774;28;20426;-62
2022/05/16 00:29:39;;;;;;;3.65;1.83;;;;;;;19.18;41.61;98999.19;5091225;28;20180;-62
2022/05/16 00:32:23;;;;;;;3.30;1.20;;;;;;;18.71;42.37;98995.81;5092089;28;20039;-64
2022/05/16 00:35:09;;;;;;;4.03;1.40;;;;;;;18.94;42.92;98994.50;5062839;28;20142;-61
2022/05/16 00:37:54;;;;;;;9.70;1.77;;;;;;;19.05;43.88;98996.91;5090950;28;20087;-62
2022/05/16 00:40:39;;;;;;;5.80;1.65;;;;;;;19.18;45.09;99006.28;5090919;28;20044;-62
2022/05/16 00:43:57;;;;;;;2.60;1.33;;;;;;;19.57;43.27;98989.94;5091545;28;20044;-62
2022/05/16 00:46:42;;;;;;;5.07;1.75;;;;;;;19.22;41.64;98999.69;5091768;28;20032;-62
2022/05/16 00:49:29;;;;;;;3.92;1.48;;;;;;;19.10;42.13;98992.97;5090753;28;20040;-62
2022/05/16 00:52:16;;;;;;;3.25;1.50;;;;;;;18.90;45.63;98985.19;5090483;28;20083;-61
2022/05/16 00:55:24;;;;;;;4.00;1.58;;;;;;;18.84;42.53;98986.63;5091677;28;20071;-62
2022/05/16 00:58:16;;;;;;;3.67;1.63;;;;;;;18.98;43.24;98987.88;5081508;28;20044;-62
2022/05/16 01:01:01;;;;;;;4.18;1.63;;;;;;;19.01;42.32;98990.25;5094616;28;20433;-62
2022/05/16 01:06:51;;;;;;;3.92;1.80;;;;;;;18.91;44.72;98992.16;5076068;28;20117;-63
2022/05/16 01:09:35;;;;;;;6.57;1.90;;;;;;;18.86;42.64;98995.25;5091465;28;20036;-62
2022/05/16 01:12:25;;;;;;;3.80;1.45;;;;;;;18.71;43.30;98987.00;5091590;28;20093;-62
2022/05/16 01:15:16;;;;;;;5.63;1.70;;;;;;;18.49;44.51;98991.78;5091712;28;20131;-62
2022/05/16 01:18:01;;;;;;;4.30;1.70;;;;;;;18.42;44.29;98988.91;5091348;28;20079;-61
2022/05/16 01:21:11;;;;;;;5.03;1.70;;;;;;;18.40;42.91;98982.91;5098257;28;20441;-63
2022/05/16 01:24:06;;;;;;;2.65;1.38;;;;;;;18.43;42.97;98985.28;5099264;28;20052;-61
2022/05/16 01:26:52;;;;;;;2.67;1.42;;;;;;;18.43;43.13;98979.97;5096776;28;20035;-62
2022/05/16 01:29:37;;;;;;;3.65;1.65;;;;;;;18.79;42.92;98981.78;5096158;28;20040;-63
2022/05/16 01:32:23;;;;;;;3.80;1.70;;;;;;;18.40;43.57;98982.09;5101682;28;20429;-63
2022/05/16 01:35:09;;;;;;;5.18;1.73;;;;;;;18.13;43.63;98981.16;5105906;28;20390;-63
2022/05/16 01:41:02;;;;;;;5.03;1.75;;;;;;;18.45;42.65;98982.47;5096013;28;20051;-63
2022/05/16 01:43:50;;;;;;;4.18;1.70;;;;;;;18.18;43.29;98979.72;5094785;28;20043;-61
2022/05/16 01:46:40;;;;;;;4.05;1.67;;;;;;;18.25;43.37;98981.78;5094444;28;20048;-62
2022/05/16 01:49:25;;;;;;;4.70;1.92;;;;;;;18.32;44.61;98985.50;5094557;28;20040;-63
2022/05/16 01:52:09;;;;;;;5.78;1.80;;;;;;;18.24;43.75;98975.63;5095067;28;20060;-63
2022/05/16 01:54:54;;;;;;;5.72;1.83;;;;;;;18.24;43.60;98980.09;5095268;28;20036;-63
2022/05/16 01:57:39;;;;;;;2.45;1.42;;;;;;;18.30;45.41;98982.16;5094330;28;20429;-63
2022/05/16 02:00:25;;;;;;;5.95;1.85;;;;;;;18.28;44.85;98978.84;5093956;28;20036;-61
2022/05/16 02:03:10;;;;;;;5.13;1.77;;;;;;;18.16;44.03;98972.91;5079651;28;20079;-62
2022/05/16 02:05:55;;;;;;;4.18;1.73;;;;;;;18.40;43.75;98976.78;5094934;28;20043;-63
2022/05/16 02:08:41;;;;;;;3.45;1.88;;;;;;;18.22;44.23;98974.94;5093390;28;20062;-62
2022/05/16 02:11:26;;;;;;;3.17;1.50;;;;;;;18.32;44.65;98975.72;5079485;28;20040;-62
2022/05/16 02:14:12;;;;;;;4.60;2.05;;;;;;;18.30;45.57;98985.63;5094634;28;20039;-62
2022/05/16 02:16:57;;;;;;;3.22;1.80;;;;;;;18.48;46.50;98982.16;5094113;28;20043;-62
2022/05/16 02:19:41;;;;;;;3.92;1.70;;;;;;;18.50;44.97;98977.56;5079383;28;20040;-64
2022/05/16 02:25:38;;;;;;;6.25;2.00;;;;;;;18.26;45.38;98975.50;5094730;28;20050;-62
2022/05/16 02:28:24;;;;;;;6.25;1.98;;;;;;;18.17;44.61;98983.34;5094278;28;20101;-62
2022/05/16 02:31:09;;;;;;;11.13;1.90;;;;;;;18.29;47.27;98988.44;5094707;28;20028;-62
2022/05/16 02:33:53;;;;;;;6.72;1.83;;;;;;;18.42;47.24;98982.78;5093572;28;20044;-62
2022/05/16 02:36:38;;;;;;;4.97;1.98;;;;;;;18.19;44.38;98991.16;5092201;28;20032;-63
2022/05/16 02:39:23;;;;;;;4.38;1.75;;;;;;;18.39;44.36;98991.88;5094421;28;20036;-62
2022/05/16 02:42:08;;;;;;;4.57;1.60;;;;;;;18.05;44.12;98992.47;5094226;28;20113;-62
2022/05/16 02:44:53;;;;;;;2.67;1.75;;;;;;;18.54;44.35;98986.03;5092900;28;20474;-63
2022/05/16 02:47:38;;;;;;;9.35;1.60;;;;;;;18.26;44.70;98986.09;5092626;28;20429;-62
2022/05/16 02:50:23;;;;;;;7.65;2.10;;;;;;;18.02;44.87;98988.28;5094047;28;20394;-62
2022/05/16 02:53:10;;;;;;;4.55;1.95;;;;;;;17.85;44.80;98989.94;5050494;28;20067;-62
2022/05/16 02:55:55;;;;;;;4.03;1.58;;;;;;;18.14;45.07;98985.47;5093098;28;20044;-62
2022/05/16 02:58:40;;;;;;;4.70;1.83;;;;;;;17.90;45.27;98984.19;5093139;28;20036;-62
2022/05/16 03:01:26;;;;;;;4.30;1.60;;;;;;;18.17;44.92;98974.56;5093420;28;20097;-62
2022/05/16 03:04:10;;;;;;;3.20;1.95;;;;;;;18.25;47.83;98965.88;5091608;28;20505;-62
2022/05/16 03:06:56;;;;;;;4.82;1.52;;;;;;;18.31;46.68;98970.56;5072361;28;20045;-62
2022/05/16 03:09:41;;;;;;;3.22;1.63;;;;;;;17.87;45.52;98984.47;5072690;28;20033;-62
2022/05/16 03:12:26;;;;;;;6.88;1.83;;;;;;;17.72;45.88;98982.31;5093584;28;20036;-62
2022/05/16 03:15:12;;;;;;;5.13;1.95;;;;;;;17.91;45.46;98986.69;5095100;28;20126;-62
2022/05/16 03:17:57;;;;;;;3.58;1.52;;;;;;;17.91;45.62;98991.97;5078055;28;20036;-64
2022/05/16 03:20:42;;;;;;;3.72;1.98;;;;;;;17.94;47.69;98991.69;5092968;28;20089;-63
2022/05/16 03:23:27;;;;;;;4.40;1.80;;;;;;;17.72;46.68;98991.06;5092360;28;20047;-62
2022/05/16 03:26:12;;;;;;;5.30;1.67;;;;;;;17.77;46.05;98995.13;5072081;28;20072;-62
2022/05/16 03:28:58;;;;;;;3.58;1.70;;;;;;;17.62;46.76;98987.66;5073167;28;20177;-62
2022/05/16 03:31:42;;;;;;;6.63;1.85;;;;;;;17.76;46.28;98991.63;5044043;28;20047;-62
2022/05/16 03:34:28;;;;;;;5.07;1.77;;;;;;;17.99;47.35;98985.94;5058038;28;20045;-63
2022/05/16 03:37:13;;;;;;;4.03;2.10;;;;;;;17.72;46.62;98984.97;5072944;28;20064;-63
2022/05/16 03:43:00;;;;;;;5.15;2.17;;;;;;;17.72;47.42;98987.63;5072644;28;20170;-63
2022/05/16 03:45:45;;;;;;;3.40;1.70;;;;;;;17.54;46.93;98985.75;5071634;28;20032;-63
2022/05/16 03:48:31;;;;;;;5.53;2.10;;;;;;;17.63;46.60;98988.50;5057179;28;20123;-63
2022/05/16 03:51:16;;;;;;;6.32;2.15;;;;;;;18.01;47.33;98991.09;5072032;28;20037;-62
2022/05/16 03:54:00;;;;;;;3.80;1.80;;;;;;;18.08;46.45;98982.38;5072030;28;20041;-63
2022/05/16 03:56:45;;;;;;;6.93;2.38;;;;;;;17.78;47.80;98987.03;5057402;28;20040;-62
2022/05/16 03:59:30;;;;;;;3.95;1.65;;;;;;;17.85;47.86;98985.44;5072317;28;20048;-62
2022/05/16 04:02:15;;;;;;;4.38;2.13;;;;;;;18.00;47.46;98990.28;5071007;28;20067;-63
2022/05/16 04:04:59;;;;;;;6.10;1.98;;;;;;;17.98;46.12;98986.94;5070075;28;20067;-63
2022/05/16 04:07:46;;;;;;;6.22;2.25;;;;;;;17.81;47.00;98993.84;5071184;28;20048;-64
2022/05/16 04:10:30;;;;;;;4.55;1.88;;;;;;;17.91;47.05;98993.78;5072519;28;20135;-63
2022/05/16 04:13:15;;;;;;;4.78;1.70;;;;;;;18.25;45.41;98992.41;5071617;28;20036;-62
2022/05/16 04:16:00;;;;;;;4.28;1.88;;;;;;;18.06;46.44;98992.31;5070078;28;20052;-62
2022/05/16 04:18:46;;;;;;;6.78;1.92;;;;;;;18.33;45.14;98998.59;5089393;28;20695;-63
2022/05/16 04:21:31;;;;;;;3.85;1.63;;;;;;;18.43;44.57;98998.53;5090554;28;20035;-63
2022/05/16 04:24:17;;;;;;;5.18;2.10;;;;;;;18.62;43.97;99001.19;5090240;28;20044;-64
2022/05/16 04:27:02;;;;;;;6.28;2.60;;;;;;;18.31;45.56;99003.22;5091037;28;20072;-61
2022/05/16 04:29:47;;;;;;;4.72;2.03;;;;;;;18.40;45.04;99006.78;5091154;28;20105;-62
2022/05/16 04:32:32;;;;;;;6.18;1.85;;;;;;;18.51;46.10;99005.72;5090913;28;20039;-64
2022/05/16 04:35:17;;;;;;;4.85;1.80;;;;;;;18.79;46.08;99007.47;5091813;28;20032;-62
2022/05/16 04:38:01;;;;;;;4.78;1.38;;;;;;;18.94;43.10;99007.75;5090925;28;20045;-63
2022/05/16 04:43:50;;;;;;;9.05;1.85;;;;;;;18.93;46.50;99014.06;5088514;28;20078;-63
2022/05/16 04:46:35;;;;;;;4.88;1.85;;;;;;;19.19;44.37;99023.91;5089653;28;20414;-63
2022/05/16 04:49:19;;;;;;;9.90;2.13;;;;;;;19.47;48.86;99026.41;5090822;28;20046;-63
2022/05/16 04:52:05;;;;;;;9.38;1.77;;;;;;;18.96;42.83;99030.50;5090147;28;20385;-63
2022/05/16 04:54:49;;;;;;;4.40;1.63;;;;;;;18.50;43.85;99030.59;5107851;28;20051;-63
2022/05/16 04:57:34;;;;;;;6.95;2.17;;;;;;;18.36;44.80;99025.81;5104946;28;20055;-62
2022/05/16 05:00:20;;;;;;;5.50;1.90;;;;;;;18.53;44.13;99027.63;5091655;28;20123;-64
2022/05/16 05:03:05;;;;;;;3.88;1.55;;;;;;;18.51;45.18;99026.13;5090716;28;20040;-62
2022/05/16 05:05:50;;;;;;;2.72;1.38;;;;;;;18.58;44.43;99020.06;5076511;28;20040;-64
2022/05/16 05:08:35;;;;;;;6.60;1.98;;;;;;;18.72;44.27;99033.78;5089605;28;20044;-61
2022/05/16 05:14:32;;;;;;;7.35;2.10;;;;;;;18.91;43.93;99035.44;5089243;28;20048;-63
2022/05/16 05:17:17;;;;;;;3.17;1.70;;;;;;;18.85;46.54;99036.03;5088816;28;20039;-62
2022/05/16 05:20:03;;;;;;;3.92;1.70;;;;;;;18.95;46.12;99030.66;5088258;28;20043;-64
2022/05/16 05:22:49;;;;;;;5.22;2.08;;;;;;;18.81;45.19;99032.03;5063013;28;20056;-61
2022/05/16 05:25:34;;;;;;;5.18;2.10;;;;;;;18.95;47.07;99023.53;5089840;28;20032;-63
2022/05/16 05:28:18;;;;;;;3.63;1.70;;;;;;;18.98;44.08;99030.34;5075256;28;20070;-64
2022/05/16 05:31:03;;;;;;;3.80;1.70;;;;;;;19.51;43.81;99029.56;5089748;28;20036;-63
2022/05/16 05:33:48;;;;;;;5.93;2.25;;;;;;;19.13;43.27;99030.66;5091256;28;20040;-64
2022/05/16 05:36:34;;;;;;;6.88;2.10;;;;;;;19.00;43.94;99038.19;5091068;28;20032;-63
2022/05/16 05:39:20;;;;;;;5.50;1.85;;;;;;;19.15;44.28;99036.66;5090588;28;20043;-64
2022/05/16 05:42:04;;;;;;;6.13;1.95;;;;;;;18.85;43.70;99044.00;5107695;28;20043;-64
2022/05/16 05:44:49;;;;;;;5.53;2.00;;;;;;;18.77;44.16;99038.66;5090672;28;20058;-62
2022/05/16 05:47:34;;;;;;;4.95;2.17;;;;;;;18.98;43.67;99048.91;5076219;28;20090;-63
2022/05/16 05:50:18;;;;;;;4.05;1.58;;;;;;;19.34;44.57;99050.72;5074936;28;20479;-63
2022/05/16 05:53:03;;;;;;;7.22;2.00;;;;;;;19.56;42.76;99052.03;5076121;28;20052;-62
2022/05/16 05:55:48;;;;;;;8.15;1.80;;;;;;;19.33;42.98;99055.22;5090095;28;20064;-63
2022/05/16 05:58:33;;;;;;;6.43;1.83;;;;;;;18.90;43.29;99052.34;5090373;28;20051;-62
2022/05/16 06:01:18;;;;;;;5.40;1.77;;;;;;;19.23;42.95;99057.13;5090930;28;20048;-62
2022/05/16 06:04:03;;;;;;;11.10;2.00;;;;;;;19.04;42.53;99056.28;5092749;28;20040;-62
2022/05/16 06:06:47;;;;;;;7.05;2.33;;;;;;;19.32;42.68;99056.19;5093137;28;20032;-62
2022/05/16 06:09:32;;;;;;;5.55;2.22;;;;;;;19.23;42.66;99054.47;5091038;28;20040;-63
2022/05/16 06:12:16;;;;;;;5.07;2.00;;;;;;;19.26;42.74;99058.66;5108535;28;20036;-63
2022/05/16 06:15:04;;;;;;;6.78;2.13;;;;;;;19.28;43.03;99068.13;5079574;28;20036;-63
2022/05/16 06:17:49;;;;;;;7.65;1.88;;;;;;;19.10;43.32;99064.63;5094691;28;20394;-63
2022/05/16 06:20:35;;;;;;;6.10;2.53;;;;;;;19.23;43.42;99065.09;5079511;28;20059;-63
2022/05/16 06:23:20;;;;;;;5.90;2.30;;;;;;;19.13;43.30;99067.03;5093726;28;20040;-63
2022/05/16 06:26:05;;;;;;;6.57;1.75;;;;;;;19.24;44.16;99074.75;5079287;28;20059;-62
2022/05/16 06:28:50;;;;;;;4.32;1.85;;;;;;;19.55;43.21;99071.59;5094313;28;20032;-63
2022/05/16 06:31:35;;;;;;;6.40;2.30;;;;;;;19.57;43.50;99072.28;5093597;28;20040;-63
2022/05/16 06:34:20;;;;;;;6.47;1.60;;;;;;;19.65;44.51;99071.50;5093236;28;20048;-63
2022/05/16 06:37:05;;;;;;;5.63;1.80;;;;;;;19.78;42.48;99070.25;5079222;28;20040;-63
2022/05/16 06:39:50;;;;;;;10.00;2.13;;;;;;;19.31;44.17;99065.16;5094496;28;20059;-63
2022/05/16 06:42:36;;;;;;;5.95;1.98;;;;;;;19.39;43.85;99075.00;5094500;28;20032;-62
2022/05/16 06:45:21;;;;;;;6.45;2.22;;;;;;;19.47;43.51;99063.59;5093766;28;20115;-63
2022/05/16 06:48:06;;;;;;;6.70;2.05;;;;;;;19.35;43.91;99064.84;5094569;28;20043;-63
2022/05/16 06:50:52;;;;;;;5.60;1.92;;;;;;;20.13;42.12;99060.47;5079306;28;20379;-63
2022/05/16 06:53:37;;;;;;;5.53;2.00;;;;;;;20.24;41.86;99061.19;5094014;28;20471;-63
2022/05/16 06:56:22;;;;;;;7.15;2.00;;;;;;;20.11;41.61;99056.34;5100109;28;20040;-63
2022/05/16 06:59:07;;;;;;;5.75;1.80;;;;;;;20.57;40.72;99050.63;5101746;28;20051;-63
2022/05/16 07:01:52;;;;;;;4.10;1.80;;;;;;;21.24;39.39;99059.50;5094602;28;20134;-64
2022/05/16 07:04:41;;;;;;;5.57;2.03;;;;;;;21.09;39.55;99050.50;5079747;28;20032;-64
2022/05/16 07:07:28;;;;;;;4.78;2.03;;;;;;;21.38;39.58;99049.19;5103021;28;20115;-63
2022/05/16 07:10:13;;;;;;;7.32;2.15;;;;;;;21.73;38.85;99055.09;5101999;28;20040;-63
2022/05/16 07:12:58;;;;;;;4.25;2.00;;;;;;;21.84;38.40;99066.41;5102542;28;20036;-64
2022/05/16 07:15:45;;;;;;;6.35;2.42;;;;;;;21.40;38.37;99060.47;5098110;28;20131;-64
2022/05/16 07:18:30;;;;;;;6.65;2.65;;;;;;;21.44;39.46;99061.81;5108473;28;20182;-64
2022/05/16 07:21:14;;;;;;;3.20;1.92;;;;;;;21.22;39.70;99069.50;5078075;28;20090;-63
2022/05/16 07:24:01;;;;;;;6.30;2.22;;;;;;;21.17;40.42;99072.66;5093563;28;20051;-63
2022/05/16 07:29:50;;;;;;;5.25;2.70;;;;;;;20.85;41.43;99070.78;5092745;28;20068;-63
2022/05/16 07:32:36;;;;;;;5.13;2.60;;;;;;;21.39;40.22;99069.50;5093308;28;20106;-62
2022/05/16 07:35:26;;;;;;;5.07;2.30;;;;;;;21.51;40.14;99084.13;5078257;28;20044;-63
2022/05/16 07:38:11;;;;;;;10.10;2.42;;;;;;;21.51;40.64;99076.13;5077992;28;20102;-64
2022/05/16 07:40:56;;;;;;;7.90;2.70;;;;;;;21.02;41.37;99077.00;5057521;28;20127;-61
2022/05/16 07:43:42;;;;;;;4.57;2.70;;;;;;;20.78;41.78;99075.94;5092467;28;20043;-65
2022/05/16 07:46:26;;;;;;;5.35;2.55;;;;;;;20.88;41.74;99081.09;5091984;28;20103;-62
2022/05/16 07:49:13;;;;;;;6.35;2.33;;;;;;;20.78;42.12;99076.78;5092358;28;20032;-64
2022/05/16 07:51:58;;;;;;;6.90;4.00;;;;;;;20.96;42.46;99073.16;5075711;28;20055;-63
2022/05/16 07:54:42;;;;;;;5.60;2.30;;;;;;;20.89;42.83;99072.94;5091070;28;20058;-63
2022/05/16 07:57:27;;;;;;;10.63;2.50;;;;;;;20.99;42.75;99074.69;5091375;28;20036;-64
2022/05/16 08:00:13;;;;;;;12.07;2.40;;;;;;;20.95;43.06;99071.50;5084691;28;20089;-64
2022/05/16 08:02:58;;;;;;;4.57;2.35;;;;;;;21.98;40.40;99072.88;5089909;28;20486;-62
2022/05/16 08:05:44;;;;;;;5.78;2.38;;;;;;;22.96;37.87;99064.53;5091614;28;20032;-64
2022/05/16 08:11:33;;;;;;;4.97;2.55;;;;;;;23.12;38.38;99065.38;5103568;28;20040;-64
2022/05/16 08:14:17;;;;;;;10.50;2.42;;;;;;;23.20;37.97;99069.81;5091445;28;20040;-63
2022/05/16 08:17:05;;;;;;;6.93;2.10;;;;;;;23.19;37.73;99068.16;5092020;28;20463;-64
2022/05/16 08:19:50;;;;;;;4.32;2.22;;;;;;;23.54;36.77;99057.84;5092837;28;20040;-63
2022/05/16 08:22:35;;;;;;;6.72;2.15;;;;;;;24.10;35.94;99066.41;5085766;28;20038;-64
2022/05/16 08:25:20;;;;;;;8.25;2.17;;;;;;;24.16;36.10;99064.84;5092577;28;20036;-64
2022/05/16 08:28:07;;;;;;;7.03;2.53;;;;;;;24.13;35.86;99060.69;5091352;28;20043;-65
2022/05/16 08:30:53;;;;;;;10.73;3.20;;;;;;;24.38;34.30;99063.06;5091453;28;20118;-66
2022/05/16 08:33:39;;;;;;;8.25;3.05;;;;;;;24.81;33.87;99058.75;5091277;28;20036;-64
2022/05/16 08:42:50;;;;;;;3.85;2.10;;;;;;;25.35;33.97;99064.59;5092033;28;20071;-66
2022/05/16 08:45:38;;;;;;;8.25;2.55;;;;;;;25.89;33.15;99067.63;5104887;28;20035;-65
2022/05/16 08:48:37;;;;;;;6.35;2.00;;;;;;;25.92;31.20;99067.22;5076282;28;20044;-66
2022/05/16 08:51:30;;;;;;;7.18;2.17;;;;;;;25.46;31.56;99060.56;5090955;28;20040;-66
2022/05/16 08:54:31;;;;;;;6.63;1.80;;;;;;;26.07;30.96;99067.09;5076602;28;20044;-66
2022/05/16 08:57:28;;;;;;;3.47;1.75;;;;;;;26.10;31.21;99070.44;5090865;28;20040;-65
2022/05/16 09:00:25;;;;;;;5.13;2.10;;;;;;;25.66;31.67;99068.75;5091001;28;20086;-66
2022/05/16 09:03:14;;;;;;;7.38;2.30;;;;;;;25.05;32.20;99070.13;5093529;28;20135;-65
2022/05/16 09:06:11;;;;;;;4.13;1.98;;;;;;;25.51;32.43;99066.13;5098032;28;20039;-66
2022/05/16 09:09:10;;;;;;;5.32;1.55;;;;;;;26.55;30.49;99059.22;5091820;28;20043;-65
2022/05/16 09:12:15;;;;;;;3.70;1.80;;;;;;;26.10;31.47;99063.19;5105096;28;20050;-65
2022/05/16 09:15:23;;;;;;;5.75;1.85;;;;;;;26.81;31.01;99063.00;5076359;28;20032;-65
2022/05/16 09:18:33;;;;;;;7.57;1.88;;;;;;;25.41;32.25;99065.66;5091601;28;20044;-62
2022/05/16 09:21:34;;;;;;;3.42;1.65;;;;;;;26.35;30.91;99067.22;5079294;28;20035;-65
2022/05/16 09:24:35;;;;;;;6.20;2.58;;;;;;;27.37;30.12;99066.31;5076130;28;20040;-64
2022/05/16 09:30:45;;;;;;;6.10;1.90;;;;;;;26.59;31.30;99065.84;5091668;28;20478;-64
2022/05/16 09:33:41;;;;;;;4.68;2.00;;;;;;;26.38;31.89;99070.34;5091536;28;20044;-64
2022/05/16 09:36:49;;;;;;;7.68;2.05;;;;;;;26.51;31.48;99066.88;5090364;28;20089;-64
2022/05/16 09:39:35;;;;;;;6.45;2.30;;;;;;;26.04;32.89;99067.50;5089883;28;20512;-64
2022/05/16 09:42:25;;;;;;;4.90;2.63;;;;;;;26.11;32.86;99064.84;5104890;28;20036;-64
2022/05/16 09:45:18;;;;;;;7.20;2.13;;;;;;;25.92;33.08;99061.88;5092983;28;20040;-64
2022/05/16 09:48:19;;;;;;;5.68;2.53;;;;;;;25.20;33.78;99073.56;5080204;28;20032;-65
2022/05/16 09:51:09;;;;;;;5.20;2.78;;;;;;;25.37;33.98;99069.75;5094285;28;20052;-64
2022/05/16 09:53:55;;;;;;;3.90;2.03;;;;;;;25.01;34.77;99063.50;5095106;28;20068;-63
2022/05/16 09:56:54;;;;;;;7.28;2.50;;;;;;;26.47;32.70;99062.09;5094368;28;20039;-64
2022/05/16 09:59:48;;;;;;;6.00;2.00;;;;;;;27.05;31.15;99052.69;5093910;28;20043;-64
2022/05/16 10:02:35;;;;;;;4.05;1.70;;;;;;;27.44;30.62;99055.56;5087592;28;20036;-63
2022/05/16 10:05:24;;;;;;;6.30;2.20;;;;;;;28.00;29.63;99057.94;5094575;28;20048;-65
2022/05/16 10:08:16;;;;;;;5.05;1.88;;;;;;;27.43;29.99;99056.59;5091953;28;20047;-65
2022/05/16 10:11:06;;;;;;;6.03;2.00;;;;;;;28.33;29.91;99057.00;5091637;28;20425;-65
2022/05/16 10:13:51;;;;;;;4.28;1.92;;;;;;;28.08;29.68;99051.47;5095076;28;20316;-66
2022/05/16 10:16:39;;;;;;;4.60;1.80;;;;;;;27.75;29.73;99047.88;5094943;28;20063;-65
2022/05/16 10:19:26;;;;;;;4.25;1.92;;;;;;;27.63;30.13;99053.06;5093875;28;20143;-66
2022/05/16 10:22:16;;;;;;;6.30;2.05;;;;;;;27.34;30.96;99047.91;5094371;28;20120;-65
2022/05/16 10:25:05;;;;;;;6.80;2.03;;;;;;;28.05;30.07;99044.66;5094420;28;20048;-65
2022/05/16 10:27:52;;;;;;;4.45;1.80;;;;;;;29.27;28.31;99033.94;5094503;28;20114;-65
2022/05/16 10:33:43;;;;;;;5.93;1.95;;;;;;;28.96;27.71;99034.78;5095229;28;20118;-63
2022/05/16 10:36:31;;;;;;;6.10;2.20;;;;;;;29.59;27.26;99034.91;5097418;28;20794;-63
2022/05/16 10:39:31;;;;;;;6.32;2.22;;;;;;;29.16;26.74;99029.28;5098608;28;20042;-62
2022/05/16 10:42:23;;;;;;;6.70;2.23;;;;;;;29.19;27.60;99030.69;5097973;28;20032;-62
2022/05/16 10:45:14;;;;;;;5.30;2.08;;;;;;;28.97;28.00;99018.44;5093775;28;20040;-61
2022/05/16 10:48:14;;;;;;;4.07;1.92;;;;;;;29.73;27.30;99035.56;5107300;28;20032;-61
2022/05/16 10:51:13;;;;;;;5.45;2.42;;;;;;;29.61;26.78;99022.81;5093147;28;20059;-62
2022/05/16 10:54:05;;;;;;;5.10;2.00;;;;;;;30.57;25.17;99028.66;5091502;28;20724;-61
2022/05/16 10:57:21;;;;;;;3.83;1.63;;;;;;;30.42;25.66;99022.88;5091338;28;20043;-61
2022/05/16 11:00:20;;;;;;;4.40;1.80;;;;;;;30.20;25.68;99024.22;5093107;28;20047;-63
2022/05/16 11:03:41;;;;;;;2.58;1.40;;;;;;;30.83;25.40;99015.03;5079023;28;20044;-62
2022/05/16 11:06:46;;;;;;;;;;;;;;;30.87;24.32;99018.88;5078866;28;20044;-63
2022/05/16 11:09:50;;;;;;;2.67;1.50;;;;;;;29.89;25.49;99012.53;5093839;28;19916;-63
2022/05/16 11:12:38;;;;;;;3.88;1.90;;;;;;;30.95;25.09;99012.31;5078330;28;20045;-61
2022/05/16 11:15:48;;;;;;;4.20;1.67;;;;;;;31.94;23.88;99019.88;5093466;28;20467;-62
2022/05/16 11:18:37;;;;;;;4.25;1.70;;;;;;;32.06;23.24;99007.13;5073511;28;20040;-62
2022/05/16 11:21:30;;;;;;;2.58;1.70;;;;;;;30.58;24.82;99010.59;5085752;28;20131;-63
2022/05/16 11:24:32;;;;;;;4.50;1.45;;;;;;;31.09;24.78;99019.13;5090779;28;20036;-63
2022/05/16 11:27:31;;;;;;;6.70;1.73;;;;;;;31.55;24.71;99001.50;5087679;28;20086;-62
2022/05/16 11:30:19;;;;;;;6.72;1.70;;;;;;;30.83;25.42;98998.81;5093316;28;20067;-57
2022/05/16 11:33:27;;;;;;;4.65;1.80;;;;;;;30.19;25.69;99002.81;5091219;28;20028;-61
2022/05/16 11:36:24;;;;;;;6.28;1.52;;;;;;;30.72;25.13;98998.50;5090566;28;20032;-61
2022/05/16 11:39:17;;;;;;;2.40;1.77;;;;;;;30.17;26.02;98994.94;5106329;28;20055;-60
2022/05/16 11:42:12;;;;;;;7.57;1.80;;;;;;;30.86;25.35;98984.81;5091162;28;20032;-59
2022/05/16 11:45:02;;;;;;;7.65;1.83;;;;;;;29.78;26.97;98992.53;5075556;28;20039;-62
2022/05/16 11:48:15;;;;;;;5.82;1.88;;;;;;;30.84;25.52;98985.03;5092168;28;20105;-61
2022/05/16 11:51:16;;;;;;;5.70;1.80;;;;;;;31.40;25.34;98985.75;5092481;28;20036;-60
2022/05/16 11:54:04;;;;;;;5.28;1.90;;;;;;;30.07;26.67;98983.84;5092114;28;20411;-60
2022/05/16 12:03:19;;;;;;;4.22;2.08;;;;;;;29.79;26.68;98967.19;5093162;28;20036;-60
2022/05/16 12:06:22;;;;;;;6.63;1.85;;;;;;;31.41;25.53;98957.63;5091215;28;20052;-60
2022/05/16 12:09:16;;;;;;;5.47;1.60;;;;;;;31.62;24.98;98956.16;5072383;28;20028;-61
2022/05/16 12:12:08;;;;;;;4.55;1.85;;;;;;;30.21;26.17;98961.03;5098832;28;20044;-59
2022/05/16 12:15:20;;;;;;;3.53;1.88;;;;;;;30.87;25.81;98943.19;5072905;28;20373;-60
2022/05/16 12:18:40;;;;;;;5.50;1.55;;;;;;;31.46;25.25;98952.31;5104679;28;20059;-61
2022/05/16 12:21:33;;;;;;;6.00;1.73;;;;;;;31.35;25.88;98937.75;5091183;28;20417;-60
2022/05/16 12:24:28;;;;;;;7.55;1.60;;;;;;;31.59;25.82;98943.94;5096073;28;20047;-60
2022/05/16 12:27:44;;;;;;;3.63;1.75;;;;;;;30.05;26.97;98942.78;5061760;28;20144;-60
2022/05/16 12:30:31;;;;;;;5.57;1.90;;;;;;;30.59;26.00;98934.69;5099664;28;20032;-61
2022/05/16 12:33:40;;;;;;;6.38;1.85;;;;;;;30.57;26.34;98925.19;5089815;28;20041;-60
2022/05/16 12:36:25;;;;;;;6.00;1.67;;;;;;;30.68;25.99;98924.38;5087231;28;20043;-60
2022/05/16 12:39:28;;;;;;;2.65;1.50;;;;;;;31.33;25.38;98920.91;5097195;28;20111;-60
2022/05/16 12:42:50;;;;;;;4.63;2.20;;;;;;;30.64;26.39;98915.06;5098487;28;20036;-60
2022/05/16 12:46:09;;;;;;;4.88;2.13;;;;;;;30.61;26.68;98902.88;5099642;28;20130;-64
2022/05/16 12:49:05;;;;;;;6.15;2.10;;;;;;;30.07;27.21;98902.84;5088697;28;20092;-64
2022/05/16 12:51:59;;;;;;;2.75;1.52;;;;;;;30.86;26.53;98898.31;5094921;28;20528;-64
2022/05/16 12:55:26;;;;;;;4.35;1.40;;;;;;;30.83;26.33;98899.59;5085989;28;20043;-64
2022/05/16 12:58:34;;;;;;;4.22;1.63;;;;;;;31.29;25.96;98900.84;5054100;28;20547;-65
2022/05/16 13:01:43;;;;;;;6.85;1.75;;;;;;;31.59;25.39;98889.81;5100221;28;20081;-65
2022/05/16 13:04:49;;;;;;;4.40;2.28;;;;;;;32.65;24.27;98887.81;5075415;28;20047;-67
2022/05/16 13:08:08;;;;;;;3.90;1.80;;;;;;;32.91;24.63;98883.56;5090689;28;20059;-66
2022/05/16 13:11:23;;;;;;;8.60;2.72;;;;;;;31.91;25.20;98890.38;5091572;28;20093;-66
2022/05/16 13:14:17;;;;;;;4.47;2.03;;;;;;;31.73;25.12;98889.50;5084575;28;20040;-66
2022/05/16 13:17:06;;;;;;;5.32;1.70;;;;;;;31.70;25.40;98887.28;5080652;28;20046;-66
2022/05/16 13:19:54;;;;;;;3.20;1.60;;;;;;;30.22;27.49;98892.50;5089375;28;20054;-66
2022/05/16 13:22:41;;;;;;;4.22;1.70;;;;;;;29.58;27.81;98893.78;5091859;28;20047;-65
2022/05/16 13:25:28;;;;;;;3.45;1.70;;;;;;;30.08;27.58;98880.22;5090713;28;20043;-65
2022/05/16 13:31:33;;;;;;;4.97;1.63;;;;;;;30.60;27.66;98868.78;5091668;28;20036;-66
2022/05/16 13:34:42;;;;;;;4.32;2.10;;;;;;;30.67;27.51;98870.56;5077936;28;20119;-66
2022/05/16 13:37:30;;;;;;;8.25;2.05;;;;;;;30.81;26.75;98866.59;5091535;28;20041;-65
2022/05/16 13:40:32;;;;;;;2.40;1.60;;;;;;;31.27;26.24;98868.59;5090345;28;20040;-65
2022/05/16 13:43:21;;;;;;;5.85;2.10;;;;;;;30.84;26.72;98870.69;5091752;28;20044;-66
2022/05/16 13:46:09;;;;;;;3.42;2.10;;;;;;;30.94;26.51;98856.56;5091468;28;20044;-66
2022/05/16 13:48:57;;;;;;;3.33;1.75;;;;;;;31.35;26.09;98865.50;5090391;28;20111;-66
2022/05/16 13:51:51;;;;;;;5.63;1.60;;;;;;;31.89;25.65;98851.91;5090808;28;20403;-65
2022/05/16 13:54:37;;;;;;;4.28;1.90;;;;;;;32.71;24.44;98843.44;5091705;28;20036;-66
2022/05/16 13:57:23;;;;;;;5.38;2.10;;;;;;;31.50;26.19;98855.25;5076216;28;20067;-64
2022/05/16 14:00:12;;;;;;;4.25;1.70;;;;;;;30.55;27.14;98848.94;5090175;28;20043;-66
2022/05/16 14:03:01;;;;;;;1.98;1.60;;;;;;;30.02;27.86;98844.16;5090710;28;20069;-67
2022/05/16 14:05:46;;;;;;;4.43;2.03;;;;;;;29.40;28.95;98846.03;5090549;28;20062;-65
2022/05/16 14:08:43;;;;;;;4.20;1.67;;;;;;;30.10;28.14;98843.00;5091575;28;20063;-65